createdAt,value
2023-04-27T00:00:41.327Z,381.00
2023-04-27T00:01:41.401Z,382.00
2023-04-27T00:02:41.635Z,383.00
2023-04-27T00:03:41.564Z,384.00
2023-04-27T00:04:41.817Z,385.00
2023-04-27T00:05:41.867Z,384.00
2023-04-27T00:06:41.597Z,383.00
2023-04-27T00:07:41.623Z,384.00
2023-04-27T00:08:41.689Z,385.00
2023-04-27T00:09:41.740Z,386.00
2023-04-27T00:10:41.737Z,386.00
2023-04-27T00:11:41.824Z,385.00
2023-04-27T00:12:41.858Z,385.00
2023-04-27T00:13:41.951Z,385.00
2023-04-27T00:14:41.940Z,385.00
2023-04-27T00:15:41.986Z,386.00
2023-04-27T00:16:42.015Z,387.00
2023-04-27T00:17:42.113Z,387.00
2023-04-27T00:18:42.194Z,387.00
2023-04-27T00:19:42.160Z,386.00
2023-04-27T00:20:42.206Z,387.00
2023-04-27T00:21:42.222Z,389.00
2023-04-27T00:22:42.298Z,390.00
2023-04-27T00:23:42.354Z,388.00
2023-04-27T00:24:42.357Z,386.00
2023-04-27T00:25:42.406Z,388.00
2023-04-27T00:26:42.461Z,390.00
2023-04-27T00:27:42.515Z,392.00
2023-04-27T00:28:42.621Z,395.00
2023-04-27T00:29:42.585Z,395.00
2023-04-27T00:30:42.637Z,394.00
2023-04-27T00:31:42.771Z,393.00
2023-04-27T00:32:42.740Z,392.00
2023-04-27T00:33:42.851Z,392.00
2023-04-27T00:34:42.818Z,394.00
2023-04-27T00:35:42.881Z,393.00
2023-04-27T00:36:42.910Z,390.00
2023-04-27T00:37:42.971Z,388.00
2023-04-27T00:38:43.002Z,389.00
2023-04-27T00:39:43.041Z,387.00
2023-04-27T00:40:43.094Z,387.00
2023-04-27T00:41:43.150Z,388.00
2023-04-27T00:42:43.187Z,390.00
2023-04-27T00:43:43.257Z,388.00
2023-04-27T00:44:43.307Z,388.00
2023-04-27T00:45:43.389Z,389.00
2023-04-27T00:46:43.398Z,387.00
2023-04-27T00:47:43.517Z,386.00
2023-04-27T00:48:43.484Z,388.00
2023-04-27T00:49:43.535Z,389.00
2023-04-27T00:50:43.604Z,392.00
2023-04-27T00:51:43.643Z,392.00
2023-04-27T00:52:43.728Z,394.00
2023-04-27T00:53:43.684Z,395.00
2023-04-27T00:54:43.790Z,395.00
2023-04-27T00:55:43.853Z,393.00
2023-04-27T00:56:43.893Z,392.00
2023-04-27T00:57:43.982Z,393.00
2023-04-27T00:58:43.973Z,394.00
2023-04-27T00:59:44.016Z,394.00
2023-04-27T01:00:44.058Z,394.00
2023-04-27T01:01:44.107Z,395.00
2023-04-27T01:02:44.262Z,393.00
2023-04-27T01:03:44.366Z,392.00
2023-04-27T01:04:44.254Z,392.00
2023-04-27T01:05:44.329Z,393.00
2023-04-27T01:06:44.334Z,393.00
2023-04-27T01:07:44.394Z,393.00
2023-04-27T01:08:44.449Z,394.00
2023-04-27T01:09:44.476Z,395.00
2023-04-27T01:10:44.571Z,397.00
2023-04-27T01:11:44.605Z,398.00
2023-04-27T01:12:44.684Z,399.00
2023-04-27T01:13:44.744Z,399.00
2023-04-27T01:14:44.751Z,398.00
2023-04-27T01:15:44.865Z,398.00
2023-04-27T01:16:44.954Z,397.00
2023-04-27T01:17:44.979Z,394.00
2023-04-27T01:18:45.044Z,395.00
2023-04-27T01:19:45.088Z,394.00
2023-04-27T01:20:45.215Z,394.00
2023-04-27T01:21:45.201Z,393.00
2023-04-27T01:22:45.213Z,393.00
2023-04-27T01:23:45.308Z,394.00
2023-04-27T01:24:45.385Z,396.00
2023-04-27T01:25:45.443Z,396.00
2023-04-27T01:26:45.503Z,394.00
2023-04-27T01:27:45.526Z,391.00
2023-04-27T01:28:45.559Z,390.00
2023-04-27T01:29:45.651Z,389.00
2023-04-27T01:30:45.744Z,391.00
2023-04-27T01:31:45.921Z,391.00
2023-04-27T01:32:45.867Z,393.00
2023-04-27T01:33:45.860Z,394.00
2023-04-27T01:34:45.946Z,394.00
2023-04-27T01:35:46.060Z,393.00
2023-04-27T01:36:46.055Z,395.00
2023-04-27T01:37:46.118Z,396.00
2023-04-27T01:38:46.206Z,396.00
2023-04-27T01:39:46.237Z,397.00
2023-04-27T01:40:46.345Z,400.00
2023-04-27T01:41:46.392Z,401.00
2023-04-27T01:42:46.433Z,401.00
2023-04-27T01:43:46.524Z,400.00
2023-04-27T01:44:46.567Z,401.00
2023-04-27T01:45:46.634Z,400.00
2023-04-27T01:46:46.804Z,398.00
2023-04-27T01:47:46.774Z,397.00
2023-04-27T01:48:46.797Z,395.00
2023-04-27T01:49:46.874Z,395.00
2023-04-27T01:50:46.986Z,395.00
2023-04-27T01:51:46.989Z,394.00
2023-04-27T01:52:47.066Z,395.00
2023-04-27T01:53:47.128Z,393.00
2023-04-27T01:54:47.180Z,393.00
2023-04-27T01:55:47.236Z,395.00
2023-04-27T01:56:47.347Z,393.00
2023-04-27T01:57:47.357Z,395.00
2023-04-27T01:58:47.391Z,396.00
2023-04-27T01:59:47.458Z,397.00
2023-04-27T02:00:47.458Z,399.00
2023-04-27T02:01:47.532Z,399.00
2023-04-27T02:02:47.644Z,398.00
2023-04-27T02:03:47.735Z,398.00
2023-04-27T02:04:47.728Z,397.00
2023-04-27T02:05:47.634Z,399.00
2023-04-27T02:06:47.708Z,398.00
2023-04-27T02:07:47.683Z,401.00
2023-04-27T02:08:47.745Z,404.00
2023-04-27T02:09:47.760Z,403.00
2023-04-27T02:10:47.769Z,403.00
2023-04-27T02:11:47.801Z,404.00
2023-04-27T02:12:47.788Z,405.00
2023-04-27T02:13:47.809Z,403.00
2023-04-27T02:14:47.834Z,403.00
2023-04-27T02:15:47.885Z,401.00
2023-04-27T02:16:47.817Z,398.00
2023-04-27T02:17:47.920Z,399.00
2023-04-27T02:18:47.845Z,399.00
2023-04-27T02:19:47.837Z,397.00
2023-04-27T02:20:47.849Z,396.00
2023-04-27T02:21:47.929Z,396.00
2023-04-27T02:22:47.881Z,399.00
2023-04-27T02:23:47.938Z,400.00
2023-04-27T02:24:47.998Z,400.00
2023-04-27T02:25:48.069Z,401.00
2023-04-27T02:26:48.061Z,402.00
2023-04-27T02:27:48.028Z,402.00
2023-04-27T02:28:48.041Z,400.00
2023-04-27T02:29:48.114Z,398.00
2023-04-27T02:30:48.082Z,401.00
2023-04-27T02:31:48.096Z,400.00
2023-04-27T02:32:48.097Z,399.00
2023-04-27T02:33:48.055Z,400.00
2023-04-27T02:34:48.172Z,400.00
2023-04-27T02:35:48.171Z,401.00
2023-04-27T02:36:48.175Z,401.00
2023-04-27T02:37:48.184Z,402.00
2023-04-27T02:38:48.230Z,402.00
2023-04-27T02:39:48.309Z,399.00
2023-04-27T02:40:48.318Z,398.00
2023-04-27T02:41:48.285Z,398.00
2023-04-27T02:42:48.268Z,399.00
2023-04-27T02:43:48.277Z,401.00
2023-04-27T02:44:48.326Z,400.00
2023-04-27T02:45:48.292Z,398.00
2023-04-27T02:46:48.321Z,394.00
2023-04-27T02:47:48.290Z,393.00
2023-04-27T02:48:48.293Z,395.00
2023-04-27T02:49:48.281Z,395.00
2023-04-27T02:50:48.325Z,398.00
2023-04-27T02:51:48.245Z,399.00
2023-04-27T02:52:48.281Z,400.00
2023-04-27T02:53:48.224Z,400.00
2023-04-27T02:54:48.236Z,403.00
2023-04-27T02:55:48.250Z,400.00
2023-04-27T02:56:48.253Z,401.00
2023-04-27T02:57:48.253Z,403.00
2023-04-27T02:58:48.247Z,402.00
2023-04-27T02:59:48.235Z,402.00
2023-04-27T03:00:48.857Z,402.00
2023-04-27T03:01:48.201Z,403.00
2023-04-27T03:02:48.341Z,403.00
2023-04-27T03:03:48.305Z,403.00
2023-04-27T03:04:48.281Z,399.00
2023-04-27T03:05:48.228Z,399.00
2023-04-27T03:06:48.216Z,399.00
2023-04-27T03:07:48.241Z,400.00
2023-04-27T03:08:48.205Z,400.00
2023-04-27T03:09:48.239Z,399.00
2023-04-27T03:10:48.183Z,399.00
2023-04-27T03:11:48.215Z,400.00
2023-04-27T03:12:48.213Z,399.00
2023-04-27T03:13:48.235Z,399.00
2023-04-27T03:14:48.222Z,399.00
2023-04-27T03:15:48.216Z,401.00
2023-04-27T03:16:48.892Z,401.00
2023-04-27T03:17:48.256Z,401.00
2023-04-27T03:18:48.179Z,402.00
2023-04-27T03:19:48.182Z,400.00
2023-04-27T03:20:48.208Z,401.00
2023-04-27T03:21:48.171Z,401.00
2023-04-27T03:22:48.218Z,401.00
2023-04-27T03:23:48.224Z,401.00
2023-04-27T03:24:48.244Z,400.00
2023-04-27T03:25:48.203Z,400.00
2023-04-27T03:26:48.180Z,400.00
2023-04-27T03:27:48.186Z,402.00
2023-04-27T03:28:48.221Z,401.00
2023-04-27T03:29:48.159Z,400.00
2023-04-27T03:30:48.269Z,400.00
2023-04-27T03:31:48.251Z,402.00
2023-04-27T03:32:48.234Z,402.00
2023-04-27T03:33:48.299Z,402.00
2023-04-27T03:34:48.204Z,404.00
2023-04-27T03:35:48.172Z,403.00
2023-04-27T03:36:48.186Z,403.00
2023-04-27T03:37:48.172Z,404.00
2023-04-27T03:38:48.224Z,403.00
2023-04-27T03:39:48.239Z,402.00
2023-04-27T03:40:48.246Z,402.00
2023-04-27T03:41:48.214Z,398.00
2023-04-27T03:42:48.222Z,399.00
2023-04-27T03:43:48.233Z,399.00
2023-04-27T03:44:48.251Z,399.00
2023-04-27T03:45:48.239Z,399.00
2023-04-27T03:46:48.283Z,400.00
2023-04-27T03:47:48.334Z,401.00
2023-04-27T03:48:48.245Z,403.00
2023-04-27T03:49:48.312Z,401.00
2023-04-27T03:50:48.237Z,398.00
2023-04-27T03:51:48.230Z,398.00
2023-04-27T03:52:48.267Z,399.00
2023-04-27T03:53:48.244Z,400.00
2023-04-27T03:54:48.278Z,400.00
2023-04-27T03:55:48.271Z,401.00
2023-04-27T03:56:48.306Z,402.00
2023-04-27T03:57:48.264Z,402.00
2023-04-27T03:58:48.277Z,402.00
2023-04-27T03:59:48.267Z,399.00
2023-04-27T04:00:48.310Z,398.00
2023-04-27T04:01:48.293Z,396.00
2023-04-27T04:02:48.505Z,397.00
2023-04-27T04:03:48.563Z,397.00
2023-04-27T04:04:48.427Z,397.00
2023-04-27T04:05:48.354Z,397.00
2023-04-27T04:06:48.369Z,397.00
2023-04-27T04:07:48.416Z,395.00
2023-04-27T04:08:48.431Z,394.00
2023-04-27T04:09:48.431Z,393.00
2023-04-27T04:10:48.410Z,394.00
2023-04-27T04:11:48.454Z,394.00
2023-04-27T04:12:48.457Z,394.00
2023-04-27T04:13:48.463Z,394.00
2023-04-27T04:14:48.476Z,392.00
2023-04-27T04:15:48.492Z,394.00
2023-04-27T04:16:48.525Z,395.00
2023-04-27T04:17:48.570Z,395.00
2023-04-27T04:18:48.607Z,394.00
2023-04-27T04:19:48.541Z,394.00
2023-04-27T04:20:48.631Z,393.00
2023-04-27T04:21:48.567Z,395.00
2023-04-27T04:22:48.717Z,393.00
2023-04-27T04:23:48.641Z,393.00
2023-04-27T04:24:48.634Z,393.00
2023-04-27T04:25:48.658Z,395.00
2023-04-27T04:26:48.662Z,394.00
2023-04-27T04:27:48.687Z,392.00
2023-04-27T04:28:48.724Z,389.00
2023-04-27T04:29:48.722Z,388.00
2023-04-27T04:30:48.682Z,390.00
2023-04-27T04:31:48.785Z,393.00
2023-04-27T04:32:48.896Z,394.00
2023-04-27T04:33:48.749Z,392.00
2023-04-27T04:34:48.759Z,390.00
2023-04-27T04:35:48.749Z,392.00
2023-04-27T04:36:48.787Z,392.00
2023-04-27T04:37:48.886Z,392.00
2023-04-27T04:38:48.832Z,392.00
2023-04-27T04:39:48.830Z,392.00
2023-04-27T04:40:48.864Z,394.00
2023-04-27T04:41:48.865Z,396.00
2023-04-27T04:42:48.911Z,395.00
2023-04-27T04:43:48.935Z,395.00
2023-04-27T04:44:48.917Z,393.00
2023-04-27T04:45:48.925Z,393.00
2023-04-27T04:46:48.998Z,392.00
2023-04-27T04:47:49.043Z,392.00
2023-04-27T04:48:49.001Z,392.00
2023-04-27T04:49:49.033Z,391.00
2023-04-27T04:50:49.041Z,393.00
2023-04-27T04:51:49.060Z,390.00
2023-04-27T04:52:49.062Z,392.00
2023-04-27T04:53:49.090Z,390.00
2023-04-27T04:54:49.105Z,389.00
2023-04-27T04:55:49.142Z,388.00
2023-04-27T04:56:49.157Z,391.00
2023-04-27T04:57:49.182Z,391.00
2023-04-27T04:58:49.274Z,393.00
2023-04-27T04:59:49.235Z,393.00
2023-04-27T05:00:49.204Z,393.00
2023-04-27T05:01:49.276Z,394.00
2023-04-27T05:02:49.513Z,395.00
2023-04-27T05:03:49.574Z,395.00
2023-04-27T05:04:49.317Z,395.00
2023-04-27T05:05:49.359Z,394.00
2023-04-27T05:06:49.391Z,393.00
2023-04-27T05:07:49.455Z,392.00
2023-04-27T05:08:49.444Z,392.00
2023-04-27T05:09:49.490Z,392.00
2023-04-27T05:10:49.493Z,393.00
2023-04-27T05:11:49.531Z,392.00
2023-04-27T05:12:49.609Z,392.00
2023-04-27T05:13:49.611Z,392.00
2023-04-27T05:14:49.653Z,395.00
2023-04-27T05:15:49.707Z,396.00
2023-04-27T05:16:49.694Z,398.00
2023-04-27T05:17:49.756Z,398.00
2023-04-27T05:18:49.791Z,398.00
2023-04-27T05:19:49.822Z,400.00
2023-04-27T05:20:49.859Z,402.00
2023-04-27T05:21:49.902Z,401.00
2023-04-27T05:22:49.946Z,399.00
2023-04-27T05:23:49.983Z,399.00
2023-04-27T05:24:50.024Z,397.00
2023-04-27T05:25:50.075Z,399.00
2023-04-27T05:26:50.095Z,399.00
2023-04-27T05:27:50.152Z,396.00
2023-04-27T05:28:50.190Z,396.00
2023-04-27T05:29:50.213Z,394.00
2023-04-27T05:30:50.174Z,392.00
2023-04-27T05:31:50.285Z,390.00
2023-04-27T05:32:50.261Z,393.00
2023-04-27T05:33:50.225Z,399.00
2023-04-27T05:34:50.269Z,404.00
2023-04-27T05:35:50.418Z,412.00
2023-04-27T05:36:50.386Z,423.00
2023-04-27T05:37:50.367Z,430.00
2023-04-27T05:38:50.403Z,454.00
2023-04-27T05:39:50.410Z,461.00
2023-04-27T05:40:50.409Z,498.00
2023-04-27T05:41:50.462Z,468.00
2023-04-27T05:42:50.467Z,601.00
2023-04-27T05:43:50.529Z,498.00
2023-04-27T05:44:50.533Z,536.00
2023-04-27T05:45:50.573Z,556.00
2023-04-27T05:46:50.538Z,561.00
2023-04-27T05:47:50.657Z,650.00
2023-04-27T05:48:50.532Z,615.00
2023-04-27T05:49:50.592Z,609.00
2023-04-27T05:50:50.790Z,654.00
2023-04-27T05:51:50.722Z,667.00
2023-04-27T05:52:50.793Z,668.00
2023-04-27T05:53:50.805Z,679.00
2023-04-27T05:54:50.849Z,683.00
2023-04-27T05:55:50.876Z,684.00
2023-04-27T05:56:51.050Z,689.00
2023-04-27T05:57:57.293Z,698.00
2023-04-27T05:58:51.937Z,705.00
2023-04-27T05:59:50.917Z,713.00
2023-04-27T06:00:50.889Z,720.00
2023-04-27T06:01:50.952Z,726.00
2023-04-27T06:02:50.971Z,735.00
2023-04-27T06:03:50.997Z,739.00
2023-04-27T06:04:50.937Z,748.00
2023-04-27T06:05:50.869Z,750.00
2023-04-27T06:06:50.898Z,762.00
2023-04-27T06:07:50.866Z,774.00
2023-04-27T06:08:50.928Z,775.00
2023-04-27T06:09:50.853Z,778.00
2023-04-27T06:10:50.963Z,777.00
2023-04-27T06:11:50.855Z,780.00
2023-04-27T06:12:50.846Z,783.00
2023-04-27T06:13:50.819Z,786.00
2023-04-27T06:14:50.859Z,793.00
2023-04-27T06:15:50.801Z,794.00
2023-04-27T06:16:50.830Z,798.00
2023-04-27T06:17:51.032Z,798.00
2023-04-27T06:18:50.979Z,799.00
2023-04-27T06:19:51.001Z,799.00
2023-04-27T06:20:51.063Z,804.00
2023-04-27T06:21:51.127Z,854.00
2023-04-27T06:22:51.197Z,863.00
2023-04-27T06:23:51.238Z,857.00
2023-04-27T06:24:51.293Z,855.00
2023-04-27T06:25:51.501Z,853.00
2023-04-27T06:26:51.436Z,850.00
2023-04-27T06:27:51.494Z,846.00
2023-04-27T06:28:51.534Z,850.00
2023-04-27T06:29:51.583Z,854.00
2023-04-27T06:31:02.543Z,855.00
2023-04-27T06:31:51.689Z,857.00
2023-04-27T06:32:51.640Z,857.00
2023-04-27T06:33:52.522Z,861.00
2023-04-27T06:34:53.036Z,857.00
2023-04-27T06:35:51.900Z,855.00
2023-04-27T06:36:52.022Z,853.00
2023-04-27T06:37:51.842Z,858.00
2023-04-27T06:38:51.618Z,860.00
2023-04-27T06:39:51.678Z,861.00
2023-04-27T06:40:51.651Z,872.00
2023-04-27T06:41:51.636Z,877.00
2023-04-27T06:42:51.624Z,882.00
2023-04-27T06:43:51.612Z,883.00
2023-04-27T06:44:51.868Z,884.00
2023-04-27T06:45:51.716Z,884.00
2023-04-27T06:46:51.978Z,885.00
2023-04-27T06:47:51.793Z,887.00
2023-04-27T06:48:51.990Z,890.00
2023-04-27T06:49:51.771Z,898.00
2023-04-27T06:50:52.088Z,901.00
2023-04-27T06:51:51.896Z,909.00
2023-04-27T06:52:51.821Z,910.00
2023-04-27T06:53:51.866Z,906.00
2023-04-27T06:54:51.877Z,897.00
2023-04-27T06:55:51.876Z,892.00
2023-04-27T06:56:51.868Z,892.00
2023-04-27T06:57:51.866Z,899.00
2023-04-27T06:58:51.879Z,898.00
2023-04-27T06:59:53.260Z,903.00
2023-04-27T07:00:51.963Z,904.00
2023-04-27T07:01:52.115Z,901.00
2023-04-27T07:02:52.064Z,894.00
2023-04-27T07:03:52.235Z,903.00
2023-04-27T07:04:52.105Z,902.00
2023-04-27T07:05:51.980Z,904.00
2023-04-27T07:06:51.989Z,771.00
2023-04-27T07:07:51.994Z,703.00
2023-04-27T07:08:52.003Z,635.00
2023-04-27T07:09:52.033Z,622.00
2023-04-27T07:10:52.060Z,623.00
2023-04-27T07:11:52.079Z,617.00
2023-04-27T07:12:52.152Z,616.00
2023-04-27T07:13:52.186Z,625.00
2023-04-27T07:14:52.241Z,631.00
2023-04-27T07:15:52.300Z,630.00
2023-04-27T07:16:52.387Z,636.00
2023-04-27T07:17:52.656Z,640.00
2023-04-27T07:18:52.502Z,640.00
2023-04-27T07:19:52.516Z,636.00
2023-04-27T07:20:52.572Z,634.00
2023-04-27T07:21:52.848Z,629.00
2023-04-27T07:22:52.700Z,625.00
2023-04-27T07:23:54.458Z,624.00
2023-04-27T07:24:52.796Z,622.00
2023-04-27T07:25:52.768Z,620.00
2023-04-27T07:26:52.767Z,616.00
2023-04-27T07:27:52.709Z,616.00
2023-04-27T07:28:52.672Z,616.00
2023-04-27T07:29:52.719Z,630.00
2023-04-27T07:30:52.792Z,634.00
2023-04-27T07:31:52.869Z,753.00
2023-04-27T07:32:52.768Z,742.00
2023-04-27T07:33:52.708Z,663.00
2023-04-27T07:34:54.334Z,674.00
2023-04-27T07:35:52.698Z,749.00
2023-04-27T07:36:52.652Z,744.00
2023-04-27T07:37:52.873Z,739.00
2023-04-27T07:38:52.744Z,692.00
2023-04-27T07:39:52.668Z,684.00
2023-04-27T07:40:52.885Z,730.00
2023-04-27T07:41:52.699Z,738.00
2023-04-27T07:42:52.680Z,740.00
2023-04-27T07:43:52.694Z,741.00
2023-04-27T07:44:52.724Z,739.00
2023-04-27T07:45:52.657Z,735.00
2023-04-27T07:46:52.598Z,727.00
2023-04-27T07:47:52.601Z,725.00
2023-04-27T07:48:52.578Z,719.00
2023-04-27T07:49:52.612Z,714.00
2023-04-27T07:50:52.563Z,709.00
2023-04-27T07:51:52.546Z,709.00
2023-04-27T07:52:52.626Z,712.00
2023-04-27T07:53:52.536Z,709.00
2023-04-27T07:54:52.557Z,706.00
2023-04-27T07:55:52.548Z,708.00
2023-04-27T07:56:52.593Z,706.00
2023-04-27T07:57:52.601Z,701.00
2023-04-27T07:58:52.539Z,699.00
2023-04-27T07:59:52.581Z,698.00
2023-04-27T08:00:52.566Z,695.00
2023-04-27T08:01:52.935Z,685.00
2023-04-27T08:02:52.841Z,680.00
2023-04-27T08:03:52.788Z,675.00
2023-04-27T08:04:52.840Z,673.00
2023-04-27T08:05:52.800Z,672.00
2023-04-27T08:06:53.184Z,673.00
2023-04-27T08:07:53.149Z,672.00
2023-04-27T08:08:52.587Z,669.00
2023-04-27T08:09:52.560Z,675.00
2023-04-27T08:10:52.553Z,671.00
2023-04-27T08:11:52.591Z,666.00
2023-04-27T08:12:52.591Z,663.00
2023-04-27T08:13:52.586Z,661.00
2023-04-27T08:14:52.616Z,660.00
2023-04-27T08:15:52.616Z,659.00
2023-04-27T08:16:52.663Z,657.00
2023-04-27T08:17:52.652Z,655.00
2023-04-27T08:18:52.654Z,653.00
2023-04-27T08:19:52.643Z,652.00
2023-04-27T08:20:52.641Z,651.00
2023-04-27T08:21:52.604Z,656.00
2023-04-27T08:22:52.638Z,655.00
2023-04-27T08:23:52.618Z,654.00
2023-04-27T08:24:52.580Z,651.00
2023-04-27T08:25:52.606Z,648.00
2023-04-27T08:26:52.582Z,657.00
2023-04-27T08:27:52.611Z,671.00
2023-04-27T08:28:52.661Z,677.00
2023-04-27T08:29:52.618Z,676.00
2023-04-27T08:30:52.618Z,671.00
2023-04-27T08:31:53.723Z,662.00
2023-04-27T08:32:52.791Z,652.00
2023-04-27T08:33:52.759Z,643.00
2023-04-27T08:34:52.796Z,640.00
2023-04-27T08:35:52.808Z,628.00
2023-04-27T08:36:52.823Z,616.00
2023-04-27T08:37:52.917Z,611.00
2023-04-27T08:38:52.878Z,603.00
2023-04-27T08:39:52.925Z,594.00
2023-04-27T08:40:52.925Z,589.00
2023-04-27T08:41:52.948Z,585.00
2023-04-27T08:42:52.980Z,583.00
2023-04-27T08:43:52.952Z,676.00
2023-04-27T08:44:52.914Z,681.00
2023-04-27T08:45:53.019Z,690.00
2023-04-27T08:46:52.992Z,686.00
2023-04-27T08:47:53.064Z,690.00
2023-04-27T08:48:53.021Z,693.00
2023-04-27T08:49:53.097Z,698.00
2023-04-27T08:50:53.147Z,702.00
2023-04-27T08:51:53.208Z,711.00
2023-04-27T08:52:53.284Z,722.00
2023-04-27T08:53:53.338Z,727.00
2023-04-27T08:54:53.386Z,729.00
2023-04-27T08:55:53.485Z,733.00
2023-04-27T08:56:53.510Z,741.00
2023-04-27T08:57:53.560Z,748.00
2023-04-27T08:58:53.608Z,752.00
2023-04-27T08:59:53.674Z,755.00
2023-04-27T09:00:53.747Z,759.00
2023-04-27T09:01:53.832Z,760.00
2023-04-27T09:02:54.317Z,761.00
2023-04-27T09:03:53.986Z,770.00
2023-04-27T09:04:54.109Z,772.00
2023-04-27T09:06:04.563Z,771.00
2023-04-27T09:06:54.988Z,776.00
2023-04-27T09:07:53.932Z,781.00
2023-04-27T09:08:57.193Z,784.00
2023-04-27T09:09:53.959Z,780.00
2023-04-27T09:10:53.989Z,784.00
2023-04-27T09:11:53.918Z,787.00
2023-04-27T09:12:54.124Z,790.00
2023-04-27T09:13:53.950Z,795.00
2023-04-27T09:14:53.988Z,793.00
2023-04-27T09:15:53.900Z,799.00
2023-04-27T09:16:53.983Z,802.00
2023-04-27T09:17:53.942Z,806.00
2023-04-27T09:18:53.907Z,811.00
2023-04-27T09:19:53.923Z,811.00
2023-04-27T09:20:53.928Z,814.00
2023-04-27T09:21:53.868Z,822.00
2023-04-27T09:22:53.909Z,825.00
2023-04-27T09:23:53.949Z,826.00
2023-04-27T09:24:53.872Z,826.00
2023-04-27T09:25:54.159Z,834.00
2023-04-27T09:26:53.823Z,836.00
2023-04-27T09:27:53.835Z,834.00
2023-04-27T09:28:53.813Z,838.00
2023-04-27T09:29:53.828Z,833.00
2023-04-27T09:30:53.966Z,830.00
2023-04-27T09:31:53.866Z,833.00
2023-04-27T09:32:53.853Z,755.00
2023-04-27T09:33:53.821Z,765.00
2023-04-27T09:34:53.835Z,766.00
2023-04-27T09:35:54.021Z,744.00
2023-04-27T09:36:53.772Z,720.00
2023-04-27T09:37:53.854Z,703.00
2023-04-27T09:38:53.756Z,688.00
2023-04-27T09:39:53.780Z,655.00
2023-04-27T09:40:53.762Z,640.00
2023-04-27T09:41:53.764Z,622.00
2023-04-27T09:42:53.742Z,614.00
2023-04-27T09:43:54.772Z,599.00
2023-04-27T09:44:53.909Z,587.00
2023-04-27T09:45:53.954Z,575.00
2023-04-27T09:46:53.923Z,565.00
2023-04-27T09:47:54.015Z,554.00
2023-04-27T09:48:53.914Z,541.00
2023-04-27T09:49:53.948Z,531.00
2023-04-27T09:50:53.966Z,524.00
2023-04-27T09:51:53.976Z,518.00
2023-04-27T09:52:54.014Z,512.00
2023-04-27T09:53:54.116Z,505.00
2023-04-27T09:54:54.103Z,492.00
2023-04-27T09:55:54.168Z,484.00
2023-04-27T09:56:54.226Z,478.00
2023-04-27T09:57:54.238Z,471.00
2023-04-27T09:58:54.633Z,464.00
2023-04-27T09:59:54.435Z,461.00
2023-04-27T10:00:54.450Z,459.00
2023-04-27T10:01:54.470Z,454.00
2023-04-27T10:02:54.663Z,451.00
2023-04-27T10:03:54.827Z,448.00
2023-04-27T10:04:54.673Z,443.00
2023-04-27T10:05:54.747Z,438.00
2023-04-27T10:06:56.518Z,433.00
2023-04-27T10:07:54.748Z,429.00
2023-04-27T10:08:54.731Z,423.00
2023-04-27T10:09:54.714Z,418.00
2023-04-27T10:10:54.695Z,414.00
2023-04-27T10:11:54.709Z,412.00
2023-04-27T10:12:54.734Z,410.00
2023-04-27T10:13:55.086Z,409.00
2023-04-27T10:14:54.719Z,408.00
2023-04-27T10:15:54.727Z,408.00
2023-04-27T10:16:54.697Z,408.00
2023-04-27T10:17:54.675Z,408.00
2023-04-27T10:18:54.666Z,408.00
2023-04-27T10:19:55.990Z,407.00
2023-04-27T10:20:54.672Z,406.00
2023-04-27T10:21:54.663Z,407.00
2023-04-27T10:22:54.651Z,406.00
2023-04-27T10:23:54.663Z,406.00
2023-04-27T10:24:54.643Z,406.00
2023-04-27T10:25:54.636Z,404.00
2023-04-27T10:26:54.608Z,403.00
2023-04-27T10:27:54.649Z,402.00
2023-04-27T10:28:54.647Z,401.00
2023-04-27T10:29:54.597Z,400.00
2023-04-27T10:30:54.621Z,399.00
2023-04-27T10:31:54.585Z,397.00
2023-04-27T10:32:54.621Z,396.00
2023-04-27T10:33:54.587Z,394.00
2023-04-27T10:34:54.583Z,393.00
2023-04-27T10:35:54.586Z,393.00
2023-04-27T10:36:54.528Z,393.00
2023-04-27T10:37:54.543Z,390.00
2023-04-27T10:38:54.509Z,390.00
2023-04-27T10:39:55.009Z,391.00
2023-04-27T10:40:54.538Z,390.00
2023-04-27T10:41:54.537Z,390.00
2023-04-27T10:42:54.576Z,390.00
2023-04-27T10:43:54.493Z,391.00
2023-04-27T10:44:54.463Z,391.00
2023-04-27T10:45:54.504Z,390.00
2023-04-27T10:46:54.509Z,388.00
2023-04-27T10:47:54.503Z,388.00
2023-04-27T10:48:54.438Z,390.00
2023-04-27T10:49:54.493Z,389.00
2023-04-27T10:50:54.487Z,387.00
2023-04-27T10:51:54.450Z,388.00
2023-04-27T10:52:54.408Z,387.00
2023-04-27T10:53:54.421Z,386.00
2023-04-27T10:54:54.426Z,388.00
2023-04-27T10:55:54.414Z,388.00
2023-04-27T10:56:54.399Z,386.00
2023-04-27T10:57:54.400Z,387.00
2023-04-27T10:58:54.378Z,387.00
2023-04-27T10:59:54.408Z,386.00
2023-04-27T11:00:54.406Z,384.00
2023-04-27T11:01:54.589Z,384.00
2023-04-27T11:02:54.747Z,385.00
2023-04-27T11:03:54.589Z,383.00
2023-04-27T11:04:55.011Z,382.00
2023-04-27T11:05:56.481Z,384.00
2023-04-27T11:06:54.650Z,384.00
2023-04-27T11:07:54.625Z,385.00
2023-04-27T11:08:54.657Z,384.00
2023-04-27T11:09:54.631Z,384.00
2023-04-27T11:10:54.626Z,385.00
2023-04-27T11:11:54.639Z,386.00
2023-04-27T11:12:54.662Z,386.00
2023-04-27T11:13:54.578Z,384.00
2023-04-27T11:14:54.593Z,382.00
2023-04-27T11:15:54.607Z,380.00
2023-04-27T11:16:54.605Z,383.00
2023-04-27T11:17:54.561Z,392.00
2023-04-27T11:18:54.572Z,416.00
2023-04-27T11:19:54.569Z,451.00
2023-04-27T11:20:54.543Z,461.00
2023-04-27T11:21:54.589Z,467.00
2023-04-27T11:22:54.555Z,472.00
2023-04-27T11:23:54.531Z,473.00
2023-04-27T11:24:54.640Z,474.00
2023-04-27T11:25:54.565Z,478.00
2023-04-27T11:26:54.543Z,482.00
2023-04-27T11:27:54.523Z,482.00
2023-04-27T11:28:54.498Z,484.00
2023-04-27T11:29:54.487Z,484.00
2023-04-27T11:30:54.501Z,485.00
2023-04-27T11:31:54.540Z,488.00
2023-04-27T11:32:54.506Z,492.00
2023-04-27T11:33:55.890Z,492.00
2023-04-27T11:34:55.673Z,494.00
2023-04-27T11:35:54.490Z,498.00
2023-04-27T11:36:58.767Z,496.00
2023-04-27T11:37:55.435Z,493.00
2023-04-27T11:38:54.446Z,491.00
2023-04-27T11:39:54.432Z,491.00
2023-04-27T11:40:54.404Z,491.00
2023-04-27T11:41:54.417Z,492.00
2023-04-27T11:42:54.430Z,494.00
2023-04-27T11:43:54.382Z,493.00
2023-04-27T11:44:54.400Z,494.00
2023-04-27T11:45:54.395Z,492.00
2023-04-27T11:46:54.486Z,492.00
2023-04-27T11:47:54.402Z,492.00
2023-04-27T11:48:54.357Z,492.00
2023-04-27T11:49:54.364Z,491.00
2023-04-27T11:50:54.371Z,490.00
2023-04-27T11:51:54.331Z,489.00
2023-04-27T11:52:54.472Z,488.00
2023-04-27T11:53:54.391Z,489.00
2023-04-27T11:54:54.543Z,490.00
2023-04-27T11:55:55.393Z,499.00
2023-04-27T11:56:54.428Z,504.00
2023-04-27T11:57:54.416Z,504.00
2023-04-27T11:58:54.404Z,501.00
2023-04-27T11:59:54.395Z,497.00
2023-04-27T12:00:54.395Z,501.00
2023-04-27T12:01:54.421Z,550.00
2023-04-27T12:02:54.521Z,529.00
2023-04-27T12:03:54.456Z,529.00
2023-04-27T12:04:54.681Z,600.00
2023-04-27T12:05:54.456Z,624.00
2023-04-27T12:06:54.385Z,646.00
2023-04-27T12:07:54.440Z,656.00
2023-04-27T12:08:54.507Z,668.00
2023-04-27T12:09:54.511Z,705.00
2023-04-27T12:10:54.644Z,722.00
2023-04-27T12:11:54.595Z,738.00
2023-04-27T12:12:54.590Z,759.00
2023-04-27T12:13:55.065Z,758.00
2023-04-27T12:14:54.594Z,761.00
2023-04-27T12:15:54.607Z,765.00
2023-04-27T12:16:54.640Z,763.00
2023-04-27T12:17:54.681Z,666.00
2023-04-27T12:18:54.685Z,644.00
2023-04-27T12:19:54.741Z,630.00
2023-04-27T12:20:54.748Z,630.00
2023-04-27T12:21:54.785Z,676.00
2023-04-27T12:22:54.823Z,689.00
2023-04-27T12:23:54.867Z,706.00
2023-04-27T12:24:54.875Z,727.00
2023-04-27T12:25:54.930Z,741.00
2023-04-27T12:26:54.929Z,745.00
2023-04-27T12:27:54.984Z,749.00
2023-04-27T12:28:55.003Z,754.00